CCG4 weather

Moncton / McEwen Airport
Moncton, New Brunswick, Canada

Public forecast

Using degrees Celsius for public forecast. Weather courtesy of forecast.io.

Closest aviation weather report (METAR) to Moncton / McEwen Airport

Closest report is Greater Moncton International Airport, 4.5 nm (8.3 km) ESE. Retrieved 2019/10/23 20:05 UTC (29 minutes ago):

CYQM 232005Z 13015G30KT 10SM RA OVC017 12/10 A2973 RMK SC8 SLP072

Closest aviation forecast (TAF) to Moncton / McEwen Airport

Closest forecast is Greater Moncton International Airport, 4.5 nm (8.3 km) ESE. Retrieved 2019/10/23 18:42 UTC (2 hours ago):

TAF CYQM 231738Z 2318/2418 13020G35KT P6SM SCT015 OVC030 TEMPO 2318/2319 5SM -SHRA BR OVC015 FM231900 14020G35KT 2SM RA BR SCT008 OVC015 TEMPO 2319/2323 P6SM -RA OVC025 PROB40 2319/2323 1SM +SHRA BR OVC008 FM232300 16010G25KT 6SM -RA BR SCT006 OVC010 TEMPO 2323/2402 3SM -RA BR OVC006 FM240200 22008G18KT P6SM SCT008 OVC015 TEMPO 2402/2404 3SM -RA BR OVC008 FM240400 25015G30KT P6SM BKN020 TEMPO 2404/2415 SCT020 FM241500 24010G20KT P6SM FEW025 RMK NXT FCST BY 240000Z